Time;durP1;ratioP1;P1;durP2;ratioP2;P2;SDS_P1;SDS_P2;PMS_P1;PMS_P2;Temp;Humidity;BMP_temperature;BMP_pressure;BME280_temperature;BME280_humidity;BME280_pressure;Samples;Min_cycle;Max_cycle;Signal;HPM_P1;HPM_P2
2022/11/15 00:02:14;;;;;;;6.40;5.53;;;;;;;;;;5067649;28;20052;-60
2022/11/15 00:04:40;;;;;;;5.25;4.75;;;;;;;;;;5066656;28;20036;-59
2022/11/15 00:07:05;;;;;;;5.88;5.25;;;;;;;;;;5067702;28;20055;-59
2022/11/15 00:09:31;;;;;;;6.40;5.10;;;;;;;;;;5067290;28;20080;-59
2022/11/15 00:11:57;;;;;;;4.97;4.43;;;;;;;;;;5066304;28;20410;-59
2022/11/15 00:14:23;;;;;;;4.63;4.22;;;;;;;;;;5066391;28;20462;-60
2022/11/15 00:16:49;;;;;;;5.03;4.50;;;;;;;;;;5067201;28;20507;-59
2022/11/15 00:19:16;;;;;;;3.88;3.58;;;;;;;;;;5066812;28;20040;-59
2022/11/15 00:21:42;;;;;;;4.82;4.18;;;;;;;;;;5067375;28;20070;-59
2022/11/15 00:24:08;;;;;;;4.30;3.90;;;;;;;;;;5065873;28;20044;-60
2022/11/15 00:26:34;;;;;;;5.82;4.80;;;;;;;;;;5065337;28;20036;-59
2022/11/15 00:29:00;;;;;;;4.85;4.45;;;;;;;;;;5066540;28;20063;-59
2022/11/15 00:31:26;;;;;;;5.53;5.03;;;;;;;;;;5067249;28;20037;-59
2022/11/15 00:33:51;;;;;;;4.97;4.25;;;;;;;;;;5066141;28;20040;-59
2022/11/15 00:36:17;;;;;;;6.18;4.80;;;;;;;;;;5067542;28;20110;-59
2022/11/15 00:38:43;;;;;;;4.78;4.28;;;;;;;;;;5066761;28;20047;-60
2022/11/15 00:41:09;;;;;;;5.28;4.75;;;;;;;;;;5066170;28;20410;-60
2022/11/15 00:43:35;;;;;;;6.35;5.65;;;;;;;;;;5066899;28;20037;-59
2022/11/15 00:46:02;;;;;;;7.28;6.35;;;;;;;;;;5066509;28;20037;-59
2022/11/15 00:48:28;;;;;;;6.30;4.90;;;;;;;;;;5066024;28;20666;-59
2022/11/15 00:50:54;;;;;;;8.75;7.05;;;;;;;;;;5066114;28;20094;-59
2022/11/15 00:53:20;;;;;;;9.45;7.63;;;;;;;;;;5066192;28;20037;-59
2022/11/15 00:55:46;;;;;;;9.35;8.20;;;;;;;;;;5065657;28;20113;-59
2022/11/15 00:58:12;;;;;;;9.73;7.65;;;;;;;;;;5066339;28;20040;-59
2022/11/15 01:00:38;;;;;;;8.27;6.93;;;;;;;;;;5065076;28;20047;-59
2022/11/15 01:03:04;;;;;;;8.02;6.65;;;;;;;;;;5065392;28;20078;-59
2022/11/15 01:05:30;;;;;;;7.40;6.18;;;;;;;;;;5065847;28;20066;-59
2022/11/15 01:07:56;;;;;;;10.18;8.02;;;;;;;;;;5065082;28;20056;-59
2022/11/15 01:10:23;;;;;;;10.35;7.97;;;;;;;;;;5066117;28;20048;-59
2022/11/15 01:12:49;;;;;;;9.75;8.38;;;;;;;;;;5066108;28;20396;-59
2022/11/15 01:15:15;;;;;;;10.98;9.57;;;;;;;;;;5065611;28;20514;-59
2022/11/15 01:17:41;;;;;;;11.10;8.65;;;;;;;;;;5065665;28;20029;-59
2022/11/15 01:20:07;;;;;;;9.23;7.45;;;;;;;;;;5064166;28;20051;-59
2022/11/15 01:22:33;;;;;;;9.23;7.85;;;;;;;;;;5066171;28;20037;-59
2022/11/15 01:24:59;;;;;;;10.82;8.55;;;;;;;;;;5065516;28;20148;-60
2022/11/15 01:27:25;;;;;;;11.00;9.90;;;;;;;;;;5065505;28;20047;-59
2022/11/15 01:29:51;;;;;;;15.73;13.32;;;;;;;;;;5065013;28;20109;-59
2022/11/15 01:32:17;;;;;;;18.52;15.43;;;;;;;;;;5066251;28;20048;-60
2022/11/15 01:34:43;;;;;;;15.95;13.48;;;;;;;;;;5065754;28;20131;-59
2022/11/15 01:37:09;;;;;;;17.13;14.77;;;;;;;;;;5064962;28;20048;-59
2022/11/15 01:39:35;;;;;;;13.38;11.70;;;;;;;;;;5065833;28;20044;-59
2022/11/15 01:42:01;;;;;;;14.30;12.25;;;;;;;;;;5065723;28;20514;-59
2022/11/15 01:44:40;;;;;;;13.27;11.57;;;;;;;;;;5064834;28;20120;-59
2022/11/15 01:47:14;;;;;;;14.68;12.25;;;;;;;;;;5064948;28;20055;-59
2022/11/15 01:49:42;;;;;;;19.02;14.95;;;;;;;;;;5063911;28;20113;-60
2022/11/15 01:52:12;;;;;;;19.75;17.25;;;;;;;;;;5065246;28;20044;-60
2022/11/15 01:54:38;;;;;;;18.98;16.30;;;;;;;;;;5065046;28;20037;-59
2022/11/15 01:57:09;;;;;;;17.98;15.32;;;;;;;;;;5064735;28;20048;-59
2022/11/15 01:59:36;;;;;;;20.30;17.75;;;;;;;;;;5065373;28;20040;-59
2022/11/15 02:02:02;;;;;;;20.35;16.52;;;;;;;;;;5065066;28;20045;-59
2022/11/15 02:04:29;;;;;;;19.38;15.65;;;;;;;;;;5064827;28;20047;-59
2022/11/15 02:06:56;;;;;;;17.33;13.52;;;;;;;;;;5065313;28;20037;-59
2022/11/15 02:09:22;;;;;;;16.25;13.82;;;;;;;;;;5064723;28;20087;-59
2022/11/15 02:11:49;;;;;;;14.85;12.73;;;;;;;;;;5097036;28;20536;-59
2022/11/15 02:14:16;;;;;;;16.70;13.70;;;;;;;;;;5065991;28;20063;-59
2022/11/15 02:16:49;;;;;;;17.48;13.50;;;;;;;;;;5064831;28;20045;-60
2022/11/15 02:19:33;;;;;;;18.02;13.90;;;;;;;;;;5064982;28;20521;-59
2022/11/15 02:21:59;;;;;;;18.65;14.90;;;;;;;;;;5064740;28;20052;-59
2022/11/15 02:24:37;;;;;;;18.13;13.55;;;;;;;;;;5065344;28;20515;-59
2022/11/15 02:27:22;;;;;;;14.50;11.45;;;;;;;;;;5063689;28;20040;-59
2022/11/15 02:30:06;;;;;;;16.60;12.70;;;;;;;;;;5064384;28;20044;-59
2022/11/15 02:32:46;;;;;;;17.17;13.82;;;;;;;;;;5063278;28;20074;-59
2022/11/15 02:35:18;;;;;;;16.83;13.90;;;;;;;;;;5063050;28;20040;-60
2022/11/15 02:37:58;;;;;;;16.20;13.15;;;;;;;;;;5063914;28;20048;-60
2022/11/15 02:40:32;;;;;;;16.30;12.65;;;;;;;;;;5064283;28;20149;-60
2022/11/15 02:45:48;;;;;;;15.65;12.48;;;;;;;;;;5064503;28;20057;-60
2022/11/15 02:48:15;;;;;;;14.93;11.32;;;;;;;;;;5064741;28;20048;-59
2022/11/15 02:50:43;;;;;;;13.15;10.48;;;;;;;;;;5068572;28;20127;-60
2022/11/15 02:53:09;;;;;;;17.50;12.18;;;;;;;;;;5066282;28;20174;-60
2022/11/15 02:55:36;;;;;;;14.65;11.48;;;;;;;;;;5068626;28;20055;-60
2022/11/15 02:58:10;;;;;;;13.85;10.60;;;;;;;;;;5066549;28;20133;-60
2022/11/15 03:00:40;;;;;;;14.20;10.55;;;;;;;;;;5068425;28;20064;-60
2022/11/15 03:03:09;;;;;;;11.93;9.65;;;;;;;;;;5068715;28;20414;-60
2022/11/15 03:05:35;;;;;;;13.65;10.75;;;;;;;;;;5066727;28;20078;-59
2022/11/15 03:08:06;;;;;;;14.27;10.10;;;;;;;;;;5067063;28;20048;-61
2022/11/15 03:10:50;;;;;;;15.88;11.95;;;;;;;;;;5068669;28;20045;-61
2022/11/15 03:13:27;;;;;;;15.38;11.60;;;;;;;;;;5068495;28;20041;-60
2022/11/15 03:15:59;;;;;;;13.52;11.00;;;;;;;;;;5068008;28;20044;-60
2022/11/15 03:18:35;;;;;;;12.75;10.13;;;;;;;;;;5068399;28;20444;-60
2022/11/15 03:21:04;;;;;;;16.83;12.13;;;;;;;;;;5066960;28;20442;-60
2022/11/15 03:23:31;;;;;;;19.00;13.38;;;;;;;;;;5100789;28;20036;-60
2022/11/15 03:25:58;;;;;;;18.77;12.00;;;;;;;;;;5068451;28;20150;-60
2022/11/15 03:28:28;;;;;;;13.85;10.02;;;;;;;;;;5067689;28;20041;-60
2022/11/15 03:30:55;;;;;;;13.48;10.20;;;;;;;;;;5083693;28;20052;-60
2022/11/15 03:33:22;;;;;;;16.75;12.05;;;;;;;;;;5068278;28;20036;-60
2022/11/15 03:35:48;;;;;;;13.40;10.02;;;;;;;;;;5067636;28;20075;-60
2022/11/15 03:38:14;;;;;;;14.10;10.40;;;;;;;;;;5067548;28;20144;-60
2022/11/15 03:40:41;;;;;;;18.15;12.07;;;;;;;;;;5067343;28;20459;-60
2022/11/15 03:43:31;;;;;;;17.45;11.30;;;;;;;;;;5066740;28;20170;-60
2022/11/15 03:46:01;;;;;;;17.02;11.35;;;;;;;;;;5067324;28;20056;-60
2022/11/15 03:48:31;;;;;;;13.30;10.77;;;;;;;;;;5067016;28;20071;-60
2022/11/15 03:50:57;;;;;;;13.75;10.43;;;;;;;;;;5064867;28;20044;-60
2022/11/15 03:53:23;;;;;;;10.15;8.18;;;;;;;;;;5067064;28;20052;-60
2022/11/15 03:55:49;;;;;;;11.85;9.20;;;;;;;;;;5067765;28;20048;-60
2022/11/15 03:58:15;;;;;;;12.60;9.02;;;;;;;;;;5065685;28;20086;-60
2022/11/15 04:00:41;;;;;;;11.80;8.63;;;;;;;;;;5067618;28;20084;-60
2022/11/15 04:03:07;;;;;;;14.45;10.13;;;;;;;;;;5067990;28;20040;-60
2022/11/15 04:05:33;;;;;;;13.93;9.52;;;;;;;;;;5066712;28;20094;-60
2022/11/15 04:08:00;;;;;;;16.05;11.38;;;;;;;;;;5066770;28;20682;-60
2022/11/15 04:10:26;;;;;;;14.20;10.43;;;;;;;;;;5065825;28;20392;-60
2022/11/15 04:12:52;;;;;;;11.55;9.73;;;;;;;;;;5066803;28;20056;-60
2022/11/15 04:15:19;;;;;;;14.38;9.82;;;;;;;;;;5070946;28;20576;-60
2022/11/15 04:17:46;;;;;;;15.15;9.95;;;;;;;;;;5070308;28;20199;-61
2022/11/15 04:25:52;;;;;;;11.68;7.82;;;;;;;;;;5066107;28;20040;-60
2022/11/15 04:28:18;;;;;;;11.98;9.18;;;;;;;;;;5067605;28;20479;-60
2022/11/15 04:30:44;;;;;;;12.30;9.05;;;;;;;;;;5067208;28;20087;-60
2022/11/15 04:33:10;;;;;;;12.20;8.73;;;;;;;;;;5066101;28;20052;-60
2022/11/15 04:35:36;;;;;;;11.52;7.95;;;;;;;;;;5065268;28;20390;-60
2022/11/15 04:38:03;;;;;;;8.45;6.95;;;;;;;;;;5067108;28;20072;-60
2022/11/15 04:40:29;;;;;;;11.63;8.15;;;;;;;;;;5065286;28;20066;-60
2022/11/15 04:42:55;;;;;;;12.98;7.93;;;;;;;;;;5066596;28;20048;-60
2022/11/15 04:45:21;;;;;;;11.95;8.35;;;;;;;;;;5066905;28;20053;-60
2022/11/15 04:47:47;;;;;;;15.90;9.20;;;;;;;;;;5097908;28;20992;-60
2022/11/15 04:50:14;;;;;;;9.68;7.35;;;;;;;;;;5066102;28;20049;-60
2022/11/15 04:52:44;;;;;;;11.23;7.82;;;;;;;;;;5065391;28;20123;-60
2022/11/15 04:55:11;;;;;;;14.55;8.65;;;;;;;;;;5064675;28;20041;-60
2022/11/15 04:57:37;;;;;;;14.00;8.73;;;;;;;;;;5065031;28;20044;-60
2022/11/15 05:00:05;;;;;;;12.35;9.13;;;;;;;;;;5065638;28;20052;-60
2022/11/15 05:04:18;;;;;;;13.27;9.55;;;;;;;;;;5066189;28;20115;-60
2022/11/15 05:05:17;;;;;;;13.50;8.98;;;;;;;;;;5066875;28;20056;-60
2022/11/15 05:07:43;;;;;;;10.68;8.68;;;;;;;;;;5065469;28;20041;-60
2022/11/15 05:10:09;;;;;;;15.75;10.75;;;;;;;;;;5066376;28;20052;-60
2022/11/15 05:12:35;;;;;;;12.70;9.00;;;;;;;;;;5069217;28;20191;-61
2022/11/15 05:15:01;;;;;;;14.63;9.00;;;;;;;;;;5070749;28;20135;-60
2022/11/15 05:17:27;;;;;;;13.20;9.80;;;;;;;;;;5066482;28;20112;-60
2022/11/15 05:19:53;;;;;;;14.23;9.57;;;;;;;;;;5064911;28;20044;-60
2022/11/15 05:22:19;;;;;;;14.93;9.73;;;;;;;;;;5065872;28;20055;-60
2022/11/15 05:24:45;;;;;;;13.10;9.50;;;;;;;;;;5074514;28;20047;-60
2022/11/15 05:27:11;;;;;;;12.32;8.93;;;;;;;;;;5068279;28;20516;-60
2022/11/15 05:29:37;;;;;;;11.80;9.77;;;;;;;;;;5065278;28;20087;-60
2022/11/15 05:32:06;;;;;;;11.35;7.97;;;;;;;;;;5066598;28;20499;-60
2022/11/15 05:34:32;;;;;;;14.90;9.48;;;;;;;;;;5066020;28;20036;-60
2022/11/15 05:36:58;;;;;;;15.48;9.32;;;;;;;;;;5064851;28;20491;-61
2022/11/15 05:39:25;;;;;;;15.73;10.32;;;;;;;;;;5065885;28;20664;-61
2022/11/15 05:42:03;;;;;;;12.07;8.95;;;;;;;;;;5065516;28;20044;-60
2022/11/15 05:44:29;;;;;;;17.15;10.18;;;;;;;;;;5065824;28;20052;-61
2022/11/15 05:46:56;;;;;;;14.30;9.25;;;;;;;;;;5071230;28;20106;-61
2022/11/15 05:49:24;;;;;;;12.30;9.57;;;;;;;;;;5068360;28;20051;-61
2022/11/15 05:51:51;;;;;;;12.95;9.05;;;;;;;;;;5064117;28;20131;-61
2022/11/15 05:54:18;;;;;;;19.20;10.90;;;;;;;;;;5065412;28;20052;-60
2022/11/15 05:56:44;;;;;;;14.50;9.98;;;;;;;;;;5064644;28;20044;-61
2022/11/15 05:59:11;;;;;;;18.10;10.90;;;;;;;;;;5067133;28;20040;-60
2022/11/15 06:01:38;;;;;;;17.65;10.80;;;;;;;;;;5065668;28;20079;-61
2022/11/15 06:04:04;;;;;;;17.17;11.45;;;;;;;;;;5069143;28;20059;-60
2022/11/15 06:06:30;;;;;;;19.05;13.07;;;;;;;;;;5062804;28;20037;-60
2022/11/15 06:08:56;;;;;;;22.67;14.65;;;;;;;;;;5065518;28;20051;-60
2022/11/15 06:11:22;;;;;;;17.88;12.85;;;;;;;;;;5064199;28;20052;-60
2022/11/15 06:13:48;;;;;;;16.23;11.55;;;;;;;;;;5065219;28;20040;-60
2022/11/15 06:16:14;;;;;;;15.27;10.45;;;;;;;;;;5065584;28;20433;-61
2022/11/15 06:18:40;;;;;;;14.70;9.98;;;;;;;;;;5064156;28;20036;-60
2022/11/15 06:21:06;;;;;;;14.10;9.80;;;;;;;;;;5064632;28;20044;-60
2022/11/15 06:23:33;;;;;;;13.95;9.27;;;;;;;;;;5063501;28;20082;-60
2022/11/15 06:25:59;;;;;;;27.98;13.10;;;;;;;;;;5063711;28;20087;-60
2022/11/15 06:28:28;;;;;;;18.13;10.68;;;;;;;;;;5064437;28;20486;-60
2022/11/15 06:30:54;;;;;;;19.52;12.23;;;;;;;;;;5064015;28;20088;-60
2022/11/15 06:33:20;;;;;;;17.00;10.95;;;;;;;;;;5063869;28;20475;-60
2022/11/15 06:35:46;;;;;;;13.73;9.43;;;;;;;;;;5064133;28;20040;-60
2022/11/15 06:38:12;;;;;;;15.15;10.27;;;;;;;;;;5063549;28;20127;-60
2022/11/15 06:40:39;;;;;;;19.10;10.73;;;;;;;;;;5064124;28;20060;-60
2022/11/15 06:43:05;;;;;;;14.00;10.18;;;;;;;;;;5063442;28;20072;-60
2022/11/15 06:45:31;;;;;;;18.98;12.63;;;;;;;;;;5063782;28;20039;-60
2022/11/15 06:47:58;;;;;;;22.65;12.43;;;;;;;;;;5064773;28;20075;-60
2022/11/15 06:50:24;;;;;;;27.67;16.35;;;;;;;;;;5064832;28;20063;-60
2022/11/15 06:52:50;;;;;;;25.95;16.73;;;;;;;;;;5063521;28;20059;-60
2022/11/15 06:55:16;;;;;;;27.65;15.60;;;;;;;;;;5067728;28;20048;-60
2022/11/15 06:57:52;;;;;;;23.33;13.95;;;;;;;;;;5063164;28;20049;-60
2022/11/15 07:00:19;;;;;;;18.05;12.95;;;;;;;;;;5062811;28;20044;-60
2022/11/15 07:02:46;;;;;;;22.13;14.27;;;;;;;;;;5065748;28;20098;-60
2022/11/15 07:05:12;;;;;;;22.52;14.77;;;;;;;;;;5064532;28;20040;-60
2022/11/15 07:07:38;;;;;;;20.20;14.00;;;;;;;;;;5060452;28;20564;-60
2022/11/15 07:10:05;;;;;;;18.67;12.82;;;;;;;;;;5065441;28;20056;-60
2022/11/15 07:12:31;;;;;;;17.70;13.18;;;;;;;;;;5063096;28;20513;-60
2022/11/15 07:14:57;;;;;;;20.63;12.95;;;;;;;;;;5064032;28;20052;-60
2022/11/15 07:17:23;;;;;;;21.48;12.88;;;;;;;;;;5063997;28;20047;-60
2022/11/15 07:19:49;;;;;;;19.67;12.70;;;;;;;;;;5063031;28;20036;-61
2022/11/15 07:22:14;;;;;;;19.80;13.43;;;;;;;;;;5064140;28;20471;-60
2022/11/15 07:24:40;;;;;;;18.23;12.73;;;;;;;;;;5071998;28;20075;-60
2022/11/15 07:27:06;;;;;;;16.17;12.55;;;;;;;;;;5066357;28;20041;-60
2022/11/15 07:29:32;;;;;;;19.40;14.13;;;;;;;;;;5064392;28;20084;-60
2022/11/15 07:31:58;;;;;;;17.95;14.00;;;;;;;;;;5065344;28;20040;-60
2022/11/15 07:34:25;;;;;;;19.75;14.80;;;;;;;;;;5064366;28;20485;-60
2022/11/15 07:36:51;;;;;;;16.42;12.80;;;;;;;;;;5068433;28;20041;-60
2022/11/15 07:39:17;;;;;;;18.77;12.02;;;;;;;;;;5067873;28;20041;-60
2022/11/15 07:41:43;;;;;;;19.15;13.77;;;;;;;;;;5065278;28;20053;-60
2022/11/15 07:44:09;;;;;;;21.65;14.85;;;;;;;;;;5067753;28;20657;-60
2022/11/15 07:46:35;;;;;;;21.23;14.65;;;;;;;;;;5067773;28;20115;-60
2022/11/15 07:49:01;;;;;;;19.23;13.35;;;;;;;;;;5065904;28;20045;-60
2022/11/15 07:51:27;;;;;;;16.08;12.60;;;;;;;;;;5068524;28;20056;-60
2022/11/15 07:53:53;;;;;;;19.08;13.00;;;;;;;;;;5068744;28;20072;-56
2022/11/15 07:56:20;;;;;;;17.20;12.93;;;;;;;;;;5067956;28;20130;-59
2022/11/15 07:58:46;;;;;;;13.82;10.85;;;;;;;;;;5069656;28;20052;-61
2022/11/15 08:01:13;;;;;;;21.17;14.43;;;;;;;;;;5073383;28;20075;-59
2022/11/15 08:03:39;;;;;;;15.25;12.00;;;;;;;;;;5076485;28;20055;-54
2022/11/15 08:06:05;;;;;;;16.42;12.38;;;;;;;;;;5068914;28;20046;-60
2022/11/15 08:08:31;;;;;;;18.02;14.35;;;;;;;;;;5068559;28;20506;-61
2022/11/15 08:11:00;;;;;;;21.27;15.13;;;;;;;;;;5070902;28;20064;-60
2022/11/15 08:13:26;;;;;;;20.10;14.77;;;;;;;;;;5070806;28;20117;-59
2022/11/15 08:15:52;;;;;;;14.07;12.27;;;;;;;;;;5072897;28;20085;-59
2022/11/15 08:18:18;;;;;;;16.90;14.00;;;;;;;;;;5070150;28;20040;-60
2022/11/15 08:20:44;;;;;;;14.82;11.63;;;;;;;;;;5079234;28;20460;-60
2022/11/15 08:23:11;;;;;;;16.90;12.88;;;;;;;;;;5069999;28;20049;-60
2022/11/15 08:25:37;;;;;;;15.48;10.32;;;;;;;;;;5064392;28;20041;-60
2022/11/15 08:28:04;;;;;;;13.07;10.55;;;;;;;;;;5065273;28;20071;-60
2022/11/15 08:30:31;;;;;;;13.65;11.93;;;;;;;;;;5066535;28;20689;-61
2022/11/15 08:32:57;;;;;;;21.15;12.38;;;;;;;;;;5065961;28;20483;-58
2022/11/15 08:35:24;;;;;;;16.85;12.38;;;;;;;;;;5066889;28;20087;-60
2022/11/15 08:37:50;;;;;;;16.48;11.80;;;;;;;;;;5066637;28;20094;-60
2022/11/15 08:40:18;;;;;;;15.20;12.43;;;;;;;;;;5067279;28;20040;-60
2022/11/15 08:42:46;;;;;;;15.25;13.10;;;;;;;;;;5071910;28;20143;-60
2022/11/15 08:45:12;;;;;;;19.67;15.25;;;;;;;;;;5067121;28;20045;-60
2022/11/15 08:47:38;;;;;;;21.75;16.40;;;;;;;;;;5065438;28;20102;-60
2022/11/15 08:50:04;;;;;;;17.55;14.50;;;;;;;;;;5067178;28;20847;-60
2022/11/15 08:52:31;;;;;;;19.38;14.82;;;;;;;;;;5062418;28;20514;-60
2022/11/15 08:54:57;;;;;;;17.08;13.63;;;;;;;;;;5066285;28;20056;-60
2022/11/15 08:57:23;;;;;;;14.60;12.30;;;;;;;;;;5065133;28;20044;-60
2022/11/15 08:59:49;;;;;;;14.43;11.43;;;;;;;;;;5065803;28;20095;-60
2022/11/15 09:02:16;;;;;;;12.93;10.75;;;;;;;;;;5066184;28;20138;-59
2022/11/15 09:04:42;;;;;;;14.48;10.32;;;;;;;;;;5075333;28;20047;-59
2022/11/15 09:07:09;;;;;;;15.48;11.93;;;;;;;;;;5084669;28;20109;-59
2022/11/15 09:09:35;;;;;;;15.85;12.52;;;;;;;;;;5085902;28;20059;-59
2022/11/15 09:12:01;;;;;;;14.40;11.63;;;;;;;;;;5084121;28;20052;-60
2022/11/15 09:14:27;;;;;;;14.00;12.15;;;;;;;;;;5073599;28;20109;-60
2022/11/15 09:16:52;;;;;;;15.30;13.70;;;;;;;;;;5066876;28;20411;-60
2022/11/15 09:19:18;;;;;;;17.75;15.13;;;;;;;;;;5067113;28;20048;-60
2022/11/15 09:21:44;;;;;;;15.48;13.77;;;;;;;;;;5058816;28;20063;-60
2022/11/15 09:24:10;;;;;;;14.52;13.02;;;;;;;;;;5062402;28;20055;-60
2022/11/15 09:26:36;;;;;;;18.25;13.95;;;;;;;;;;5064269;28;20084;-59
2022/11/15 09:29:02;;;;;;;14.13;12.63;;;;;;;;;;5065453;28;20149;-59
2022/11/15 09:31:29;;;;;;;13.32;11.90;;;;;;;;;;5066025;28;20044;-60
2022/11/15 09:33:55;;;;;;;11.43;10.23;;;;;;;;;;5071267;28;20040;-59
2022/11/15 09:36:21;;;;;;;16.60;12.48;;;;;;;;;;5069943;28;20399;-60
2022/11/15 09:38:47;;;;;;;19.98;13.98;;;;;;;;;;5067141;28;20040;-60
2022/11/15 09:41:13;;;;;;;14.10;12.20;;;;;;;;;;5046638;28;20049;-59
2022/11/15 09:43:58;;;;;;;15.20;11.95;;;;;;;;;;5048122;28;19948;-60
2022/11/15 09:46:24;;;;;;;;;;;;;;;;;;5058386;28;20048;-59
2022/11/15 09:48:50;;;;;;;;;;;;;;;;;;5070547;28;19928;-59
2022/11/15 09:51:16;;;;;;;;;;;;;;;;;;5066875;28;19928;-59
2022/11/15 09:53:42;;;;;;;;;;;;;;;;;;5066697;28;20007;-60
2022/11/15 09:56:08;;;;;;;;;;;;;;;;;;5065863;28;19925;-60
2022/11/15 09:58:33;;;;;;;;;;;;;;;;;;5060286;28;19924;-60
2022/11/15 10:00:59;;;;;;;;;;;;;;;;;;5066258;28;19924;-59
2022/11/15 10:03:34;;;;;;;11.63;10.07;;;;;;;;;;5065078;28;19920;-60
2022/11/15 10:06:01;;;;;;;;;;;;;;;;;;5061411;28;20123;-60
2022/11/15 10:08:27;;;;;;;;;;;;;;;;;;5081334;28;19924;-60
2022/11/15 10:10:53;;;;;;;;;;;;;;;;;;5065485;28;19979;-60
2022/11/15 10:13:19;;;;;;;;;;;;;;;;;;5066962;28;20011;-60
2022/11/15 10:15:47;;;;;;;;;;;;;;;;;;5066135;28;19924;-60
2022/11/15 10:18:13;;;;;;;;;;;;;;;;;;5082489;28;20029;-60
2022/11/15 10:20:39;;;;;;;;;;;;;;;;;;5072529;28;19923;-60
2022/11/15 10:23:05;;;;;;;;;;;;;;;;;;5066202;28;19927;-60
2022/11/15 10:25:31;;;;;;;;;;;;;;;;;;5064826;28;20337;-59
2022/11/15 10:27:57;;;;;;;;;;;;;;;;;;5065639;28;19970;-60
2022/11/15 10:30:23;;;;;;;;;;;;;;;;;;5058926;28;19921;-59
2022/11/15 10:32:49;;;;;;;;;;;;;;;;;;5055903;28;19975;-59
2022/11/15 10:35:15;;;;;;;;;;;;;;;;;;5066534;28;19926;-59
2022/11/15 10:37:41;;;;;;;12.93;10.65;;;;;;;;;;5065021;28;20003;-59
2022/11/15 10:40:07;;;;;;;;;;;;;;;;;;5065369;28;20406;-60
2022/11/15 10:42:33;;;;;;;;;;;;;;;;;;5065703;28;19924;-60
2022/11/15 10:44:59;;;;;;;;;;;;;;;;;;5065511;28;20403;-60
2022/11/15 10:47:25;;;;;;;;;;;;;;;;;;5064732;28;20026;-60
2022/11/15 10:49:50;;;;;;;;;;;;;;;;;;5057160;28;19921;-60
2022/11/15 10:52:16;;;;;;;;;;;;;;;;;;5054323;28;19963;-60
2022/11/15 10:54:42;;;;;;;;;;;;;;;;;;5048915;28;19927;-60
2022/11/15 10:57:08;;;;;;;;;;;;;;;;;;5046757;28;19982;-60
2022/11/15 10:59:34;;;;;;;;;;;;;;;;;;5046034;28;19943;-60
2022/11/15 11:02:00;;;;;;;;;;;;;;;;;;5046513;28;19924;-60
2022/11/15 11:04:26;;;;;;;;;;;;;;;;;;5046845;28;19967;-60
2022/11/15 11:06:52;;;;;;;;;;;;;;;;;;5067360;28;19920;-60
2022/11/15 11:09:18;;;;;;;;;;;;;;;;;;5067108;28;20309;-60
2022/11/15 11:11:44;;;;;;;;;;;;;;;;;;5068392;28;19927;-60
2022/11/15 11:14:09;;;;;;;;;;;;;;;;;;5070267;28;19974;-60
2022/11/15 11:16:36;;;;;;;;;;;;;;;;;;5069303;28;20002;-61
2022/11/15 11:19:02;;;;;;;;;;;;;;;;;;5076870;28;19964;-60
2022/11/15 11:21:28;;;;;;;;;;;;;;;;;;5068254;28;19920;-60
2022/11/15 11:23:54;;;;;;;;;;;;;;;;;;5069301;28;19924;-60
2022/11/15 11:26:19;;;;;;;;;;;;;;;;;;5069917;28;19925;-60
2022/11/15 11:28:45;;;;;;;;;;;;;;;;;;5059082;28;19921;-60
2022/11/15 11:31:11;;;;;;;;;;;;;;;;;;5066767;28;19920;-60
2022/11/15 11:33:37;;;;;;;;;;;;;;;;;;5069875;28;19927;-60
2022/11/15 11:36:03;;;;;;;;;;;;;;;;;;5070141;28;20394;-60
2022/11/15 11:38:29;;;;;;;;;;;;;;;;;;5065877;28;20013;-60
2022/11/15 11:40:55;;;;;;;;;;;;;;;;;;5065656;28;19924;-60
2022/11/15 11:43:21;;;;;;;;;;;;;;;;;;5083109;28;19920;-60
2022/11/15 11:45:49;;;;;;;;;;;;;;;;;;5084711;28;19920;-60
2022/11/15 11:48:15;;;;;;;;;;;;;;;;;;5068774;28;19924;-60
2022/11/15 11:50:40;;;;;;;;;;;;;;;;;;5065342;28;19982;-60
2022/11/15 11:53:06;;;;;;;;;;;;;;;;;;5066443;28;19943;-60
2022/11/15 11:55:32;;;;;;;;;;;;;;;;;;5065758;28;19921;-60
2022/11/15 11:57:58;;;;;;;;;;;;;;;;;;5067189;28;19920;-60
2022/11/15 12:00:25;;;;;;;;;;;;;;;;;;5067490;28;20401;-60
2022/11/15 12:02:51;;;;;;;;;;;;;;;;;;5067196;28;20015;-60
2022/11/15 12:05:17;;;;;;;;;;;;;;;;;;5068349;28;19995;-60
2022/11/15 12:07:43;;;;;;;;;;;;;;;;;;5067742;28;19928;-60
2022/11/15 12:10:16;;;;;;;4.07;3.70;;;;;;;;;;5067341;28;19995;-60
2022/11/15 12:12:49;;;;;;;5.32;4.07;;;;;;;;;;5067508;28;20551;-61
2022/11/15 12:15:15;;;;;;;;;;;;;;;;;;5067554;28;20044;-59
2022/11/15 12:17:41;;;;;;;;;;;;;;;;;;5065866;28;19935;-59
2022/11/15 12:20:09;;;;;;;;;;;;;;;;;;5067400;28;19978;-59
2022/11/15 12:22:35;;;;;;;;;;;;;;;;;;5065476;28;19982;-59
2022/11/15 12:25:01;;;;;;;;;;;;;;;;;;5064116;28;19920;-59
2022/11/15 12:27:27;;;;;;;;;;;;;;;;;;5065498;28;19920;-59
2022/11/15 12:29:53;;;;;;;;;;;;;;;;;;5062552;28;20289;-59
2022/11/15 12:32:19;;;;;;;;;;;;;;;;;;5066369;28;19928;-59
2022/11/15 12:34:45;;;;;;;;;;;;;;;;;;5068943;28;19963;-59
2022/11/15 12:37:11;;;;;;;;;;;;;;;;;;5069127;28;19974;-59
2022/11/15 12:39:37;;;;;;;;;;;;;;;;;;5065368;28;19920;-59
2022/11/15 12:42:03;;;;;;;;;;;;;;;;;;5065253;28;19989;-59
2022/11/15 12:44:28;;;;;;;;;;;;;;;;;;5064112;28;19920;-59
2022/11/15 12:46:54;;;;;;;;;;;;;;;;;;5065750;28;19935;-59
2022/11/15 12:49:20;;;;;;;;;;;;;;;;;;5066046;28;19928;-59
2022/11/15 12:51:46;;;;;;;;;;;;;;;;;;5065593;28;20011;-59
2022/11/15 12:54:12;;;;;;;;;;;;;;;;;;5066239;28;19928;-59
2022/11/15 12:56:40;;;;;;;;;;;;;;;;;;5066248;28;20309;-59
2022/11/15 12:59:05;;;;;;;;;;;;;;;;;;5065883;28;19921;-59
2022/11/15 13:03:57;;;;;;;;;;;;;;;;;;5066885;28;20277;-59
2022/11/15 13:06:23;;;;;;;;;;;;;;;;;;5063232;28;19924;-59
2022/11/15 13:08:49;;;;;;;;;;;;;;;;;;5066149;28;19981;-59
2022/11/15 13:11:15;;;;;;;;;;;;;;;;;;5066138;28;19924;-59
2022/11/15 13:13:43;;;;;;;4.05;2.00;;;;;;;;;;5062223;28;20361;-58
2022/11/15 13:16:09;;;;;;;2.92;1.95;;;;;;;;;;5059079;28;20032;-59
2022/11/15 13:18:37;;;;;;;4.07;1.98;;;;;;;;;;5065736;28;20048;-59
2022/11/15 13:22:50;;;;;;;3.13;1.63;;;;;;;;;;5064309;28;20048;-60
2022/11/15 13:23:49;;;;;;;;;;;;;;;;;;5062887;28;20048;-59
2022/11/15 13:26:20;;;;;;;;;;;;;;;;;;5098066;28;19943;-59
2022/11/15 13:28:48;;;;;;;;;;;;;;;;;;5066199;28;19921;-60
2022/11/15 13:31:14;;;;;;;;;;;;;;;;;;5066132;28;19920;-59
2022/11/15 13:33:40;;;;;;;;;;;;;;;;;;5064480;28;19924;-59
2022/11/15 13:36:06;;;;;;;;;;;;;;;;;;5066701;28;19920;-59
2022/11/15 13:38:32;;;;;;;;;;;;;;;;;;5066144;28;19929;-59
2022/11/15 13:40:57;;;;;;;;;;;;;;;;;;5065074;28;20256;-59
2022/11/15 13:43:23;;;;;;;;;;;;;;;;;;5065748;28;19924;-59
2022/11/15 13:45:49;;;;;;;;;;;;;;;;;;5066809;28;20385;-59
2022/11/15 13:48:15;;;;;;;;;;;;;;;;;;5065406;28;19924;-60
2022/11/15 13:50:41;;;;;;;;;;;;;;;;;;5064131;28;19920;-59
2022/11/15 13:53:07;;;;;;;;;;;;;;;;;;5066237;28;19924;-59
2022/11/15 13:55:33;;;;;;;;;;;;;;;;;;5064735;28;19924;-59
2022/11/15 13:57:59;;;;;;;;;;;;;;;;;;5065512;28;19924;-59
2022/11/15 14:00:25;;;;;;;;;;;;;;;;;;5065819;28;19963;-59
2022/11/15 14:02:51;;;;;;;;;;;;;;;;;;5064499;28;19920;-59
2022/11/15 14:05:17;;;;;;;;;;;;;;;;;;5066560;28;19928;-59
2022/11/15 14:07:42;;;;;;;;;;;;;;;;;;5062958;28;19964;-59
2022/11/15 14:10:08;;;;;;;;;;;;;;;;;;5065986;28;19932;-59
2022/11/15 14:12:34;;;;;;;;;;;;;;;;;;5065755;28;19924;-59
2022/11/15 14:15:01;;;;;;;;;;;;;;;;;;5066403;28;20015;-59
2022/11/15 14:17:27;;;;;;;;;;;;;;;;;;5065510;28;20006;-59
2022/11/15 14:19:53;;;;;;;;;;;;;;;;;;5066195;28;20014;-59
2022/11/15 14:22:22;;;;;;;;;;;;;;;;;;5063505;28;19920;-59
2022/11/15 14:24:48;;;;;;;;;;;;;;;;;;5066847;28;19928;-59
2022/11/15 14:27:14;;;;;;;;;;;;;;;;;;5068949;28;19920;-59
2022/11/15 14:29:40;;;;;;;;;;;;;;;;;;5066305;28;20851;-59
2022/11/15 14:32:06;;;;;;;;;;;;;;;;;;5068625;28;19924;-59
2022/11/15 14:34:31;;;;;;;;;;;;;;;;;;5065583;28;20563;-59
2022/11/15 14:36:57;;;;;;;;;;;;;;;;;;5064846;28;19920;-59
2022/11/15 14:39:25;;;;;;;;;;;;;;;;;;5065592;28;19952;-59
2022/11/15 14:41:50;;;;;;;;;;;;;;;;;;5065950;28;19921;-59
2022/11/15 14:44:18;;;;;;;;;;;;;;;;;;5061772;28;19920;-59
2022/11/15 14:46:44;;;;;;;;;;;;;;;;;;5057873;28;20486;-59
2022/11/15 14:49:10;;;;;;;;;;;;;;;;;;5066808;28;19924;-59
2022/11/15 14:51:36;;;;;;;;;;;;;;;;;;5064818;28;19928;-59
2022/11/15 14:54:01;;;;;;;;;;;;;;;;;;5065522;28;19928;-59
2022/11/15 14:56:27;;;;;;;;;;;;;;;;;;5065271;28;19920;-59
2022/11/15 14:58:55;;;;;;;;;;;;;;;;;;5065083;28;20389;-59
2022/11/15 15:01:20;;;;;;;;;;;;;;;;;;5065587;28;20298;-59
2022/11/15 15:03:46;;;;;;;;;;;;;;;;;;5065134;28;19921;-59
2022/11/15 15:06:13;;;;;;;;;;;;;;;;;;5064695;28;19920;-59
2022/11/15 15:08:39;;;;;;;;;;;;;;;;;;5061892;28;19924;-59
2022/11/15 15:11:05;;;;;;;;;;;;;;;;;;5061202;28;20073;-59
2022/11/15 15:13:31;;;;;;;;;;;;;;;;;;5062647;28;20325;-59
2022/11/15 15:15:57;;;;;;;;;;;;;;;;;;5066064;28;19926;-59
2022/11/15 15:18:22;;;;;;;;;;;;;;;;;;5065798;28;19926;-59